sensor_id;sensor_type;location;lat;lon;timestamp;P1;durP1;ratioP1;P2;durP2;ratioP2
69527;SDS011;57136;51.986;4.468;2022-07-23T00:00:29;6.28;;;2.85;;
69527;SDS011;57136;51.986;4.468;2022-07-23T00:02:55;3.40;;;2.05;;
69527;SDS011;57136;51.986;4.468;2022-07-23T00:05:20;3.35;;;2.50;;
69527;SDS011;57136;51.986;4.468;2022-07-23T00:07:45;3.22;;;2.30;;
69527;SDS011;57136;51.986;4.468;2022-07-23T00:10:10;3.95;;;2.97;;
69527;SDS011;57136;51.986;4.468;2022-07-23T00:12:36;2.88;;;2.40;;
69527;SDS011;57136;51.986;4.468;2022-07-23T00:15:03;4.90;;;3.00;;
69527;SDS011;57136;51.986;4.468;2022-07-23T00:17:29;4.30;;;3.10;;
69527;SDS011;57136;51.986;4.468;2022-07-23T00:19:55;4.88;;;3.03;;
69527;SDS011;57136;51.986;4.468;2022-07-23T00:22:20;3.55;;;2.90;;
69527;SDS011;57136;51.986;4.468;2022-07-23T00:24:46;5.20;;;3.03;;
69527;SDS011;57136;51.986;4.468;2022-07-23T00:27:11;6.32;;;2.90;;
69527;SDS011;57136;51.986;4.468;2022-07-23T00:29:36;4.78;;;3.08;;
69527;SDS011;57136;51.986;4.468;2022-07-23T00:32:02;5.57;;;3.42;;
69527;SDS011;57136;51.986;4.468;2022-07-23T00:34:27;4.95;;;3.00;;
69527;SDS011;57136;51.986;4.468;2022-07-23T00:36:53;4.75;;;3.00;;
69527;SDS011;57136;51.986;4.468;2022-07-23T00:39:19;5.25;;;3.22;;
69527;SDS011;57136;51.986;4.468;2022-07-23T00:41:46;7.30;;;3.00;;
69527;SDS011;57136;51.986;4.468;2022-07-23T00:46:49;5.70;;;3.05;;
69527;SDS011;57136;51.986;4.468;2022-07-23T00:49:18;4.28;;;3.30;;
69527;SDS011;57136;51.986;4.468;2022-07-23T00:51:54;6.97;;;3.20;;
69527;SDS011;57136;51.986;4.468;2022-07-23T00:54:22;4.93;;;3.22;;
69527;SDS011;57136;51.986;4.468;2022-07-23T00:56:49;4.63;;;2.85;;
69527;SDS011;57136;51.986;4.468;2022-07-23T00:59:15;4.85;;;2.97;;
69527;SDS011;57136;51.986;4.468;2022-07-23T01:01:41;6.05;;;3.60;;
69527;SDS011;57136;51.986;4.468;2022-07-23T01:04:11;9.10;;;3.22;;
69527;SDS011;57136;51.986;4.468;2022-07-23T01:06:38;4.68;;;3.30;;
69527;SDS011;57136;51.986;4.468;2022-07-23T01:09:04;4.43;;;2.83;;
69527;SDS011;57136;51.986;4.468;2022-07-23T01:11:31;5.78;;;2.85;;
69527;SDS011;57136;51.986;4.468;2022-07-23T01:13:58;6.00;;;3.50;;
69527;SDS011;57136;51.986;4.468;2022-07-23T01:16:23;5.97;;;3.08;;
69527;SDS011;57136;51.986;4.468;2022-07-23T01:18:49;5.50;;;3.10;;
69527;SDS011;57136;51.986;4.468;2022-07-23T01:21:14;7.13;;;3.60;;
69527;SDS011;57136;51.986;4.468;2022-07-23T01:23:43;8.13;;;3.22;;
69527;SDS011;57136;51.986;4.468;2022-07-23T01:26:08;4.95;;;3.30;;
69527;SDS011;57136;51.986;4.468;2022-07-23T01:28:34;5.40;;;3.03;;
69527;SDS011;57136;51.986;4.468;2022-07-23T01:30:59;5.35;;;3.35;;
69527;SDS011;57136;51.986;4.468;2022-07-23T01:33:24;4.07;;;3.05;;
69527;SDS011;57136;51.986;4.468;2022-07-23T01:35:50;10.38;;;3.55;;
69527;SDS011;57136;51.986;4.468;2022-07-23T01:38:15;6.07;;;3.25;;
69527;SDS011;57136;51.986;4.468;2022-07-23T01:40:40;5.97;;;3.28;;
69527;SDS011;57136;51.986;4.468;2022-07-23T01:43:06;6.38;;;3.30;;
69527;SDS011;57136;51.986;4.468;2022-07-23T01:45:31;4.55;;;3.30;;
69527;SDS011;57136;51.986;4.468;2022-07-23T01:47:56;3.78;;;3.17;;
69527;SDS011;57136;51.986;4.468;2022-07-23T01:50:21;6.32;;;3.65;;
69527;SDS011;57136;51.986;4.468;2022-07-23T01:52:47;4.78;;;3.45;;
69527;SDS011;57136;51.986;4.468;2022-07-23T01:55:12;6.45;;;3.42;;
69527;SDS011;57136;51.986;4.468;2022-07-23T01:57:38;4.90;;;3.47;;
69527;SDS011;57136;51.986;4.468;2022-07-23T02:00:03;6.90;;;3.30;;
69527;SDS011;57136;51.986;4.468;2022-07-23T02:02:29;6.03;;;3.08;;
69527;SDS011;57136;51.986;4.468;2022-07-23T02:04:54;4.13;;;3.30;;
69527;SDS011;57136;51.986;4.468;2022-07-23T02:07:19;9.85;;;3.60;;
69527;SDS011;57136;51.986;4.468;2022-07-23T02:09:45;4.00;;;3.35;;
69527;SDS011;57136;51.986;4.468;2022-07-23T02:12:10;6.15;;;3.15;;
69527;SDS011;57136;51.986;4.468;2022-07-23T02:14:36;10.50;;;3.58;;
69527;SDS011;57136;51.986;4.468;2022-07-23T02:17:01;5.22;;;3.53;;
69527;SDS011;57136;51.986;4.468;2022-07-23T02:19:26;3.85;;;3.10;;
69527;SDS011;57136;51.986;4.468;2022-07-23T02:21:52;6.20;;;3.63;;
69527;SDS011;57136;51.986;4.468;2022-07-23T02:24:17;7.20;;;3.80;;
69527;SDS011;57136;51.986;4.468;2022-07-23T02:26:43;4.80;;;3.65;;
69527;SDS011;57136;51.986;4.468;2022-07-23T02:29:08;8.38;;;3.38;;
69527;SDS011;57136;51.986;4.468;2022-07-23T02:31:34;6.78;;;3.80;;
69527;SDS011;57136;51.986;4.468;2022-07-23T02:34:00;4.95;;;3.63;;
69527;SDS011;57136;51.986;4.468;2022-07-23T02:36:25;5.55;;;3.30;;
69527;SDS011;57136;51.986;4.468;2022-07-23T02:38:51;5.50;;;3.40;;
69527;SDS011;57136;51.986;4.468;2022-07-23T02:41:16;5.25;;;3.80;;
69527;SDS011;57136;51.986;4.468;2022-07-23T02:43:42;4.70;;;3.60;;
69527;SDS011;57136;51.986;4.468;2022-07-23T02:46:07;5.43;;;4.18;;
69527;SDS011;57136;51.986;4.468;2022-07-23T02:48:33;5.32;;;3.78;;
69527;SDS011;57136;51.986;4.468;2022-07-23T02:50:58;5.25;;;3.72;;
69527;SDS011;57136;51.986;4.468;2022-07-23T02:53:24;5.93;;;3.92;;
69527;SDS011;57136;51.986;4.468;2022-07-23T02:55:49;6.68;;;3.92;;
69527;SDS011;57136;51.986;4.468;2022-07-23T02:58:15;5.60;;;3.88;;
69527;SDS011;57136;51.986;4.468;2022-07-23T03:00:40;7.75;;;4.10;;
69527;SDS011;57136;51.986;4.468;2022-07-23T03:03:06;6.68;;;3.88;;
69527;SDS011;57136;51.986;4.468;2022-07-23T03:05:32;9.02;;;4.03;;
69527;SDS011;57136;51.986;4.468;2022-07-23T03:07:58;5.22;;;3.90;;
69527;SDS011;57136;51.986;4.468;2022-07-23T03:10:23;5.35;;;3.83;;
69527;SDS011;57136;51.986;4.468;2022-07-23T03:12:48;6.55;;;4.15;;
69527;SDS011;57136;51.986;4.468;2022-07-23T03:15:13;6.60;;;4.22;;
69527;SDS011;57136;51.986;4.468;2022-07-23T03:17:39;7.15;;;4.25;;
69527;SDS011;57136;51.986;4.468;2022-07-23T03:20:04;7.50;;;4.18;;
69527;SDS011;57136;51.986;4.468;2022-07-23T03:22:30;7.35;;;4.35;;
69527;SDS011;57136;51.986;4.468;2022-07-23T03:24:55;5.93;;;4.03;;
69527;SDS011;57136;51.986;4.468;2022-07-23T03:27:22;7.53;;;4.80;;
69527;SDS011;57136;51.986;4.468;2022-07-23T03:29:48;6.55;;;4.03;;
69527;SDS011;57136;51.986;4.468;2022-07-23T03:32:14;11.02;;;4.65;;
69527;SDS011;57136;51.986;4.468;2022-07-23T03:34:40;5.68;;;4.63;;
69527;SDS011;57136;51.986;4.468;2022-07-23T03:37:05;7.72;;;4.55;;
69527;SDS011;57136;51.986;4.468;2022-07-23T03:39:31;6.55;;;4.30;;
69527;SDS011;57136;51.986;4.468;2022-07-23T03:41:56;6.45;;;4.20;;
69527;SDS011;57136;51.986;4.468;2022-07-23T03:44:22;7.65;;;4.63;;
69527;SDS011;57136;51.986;4.468;2022-07-23T03:46:48;6.78;;;4.88;;
69527;SDS011;57136;51.986;4.468;2022-07-23T03:49:13;9.70;;;4.60;;
69527;SDS011;57136;51.986;4.468;2022-07-23T03:51:38;5.45;;;4.28;;
69527;SDS011;57136;51.986;4.468;2022-07-23T03:54:04;7.35;;;5.00;;
69527;SDS011;57136;51.986;4.468;2022-07-23T03:56:29;6.63;;;4.53;;
69527;SDS011;57136;51.986;4.468;2022-07-23T03:58:54;5.88;;;4.70;;
69527;SDS011;57136;51.986;4.468;2022-07-23T04:01:20;6.60;;;4.57;;
69527;SDS011;57136;51.986;4.468;2022-07-23T04:03:45;6.50;;;4.45;;
69527;SDS011;57136;51.986;4.468;2022-07-23T04:06:11;7.95;;;5.05;;
69527;SDS011;57136;51.986;4.468;2022-07-23T04:08:37;6.22;;;4.68;;
69527;SDS011;57136;51.986;4.468;2022-07-23T04:11:02;10.07;;;4.88;;
69527;SDS011;57136;51.986;4.468;2022-07-23T04:13:27;9.55;;;4.65;;
69527;SDS011;57136;51.986;4.468;2022-07-23T04:15:52;7.88;;;4.72;;
69527;SDS011;57136;51.986;4.468;2022-07-23T04:18:18;8.50;;;4.63;;
69527;SDS011;57136;51.986;4.468;2022-07-23T04:20:44;16.33;;;10.98;;
69527;SDS011;57136;51.986;4.468;2022-07-23T04:23:10;17.42;;;8.48;;
69527;SDS011;57136;51.986;4.468;2022-07-23T04:25:35;6.40;;;4.88;;
69527;SDS011;57136;51.986;4.468;2022-07-23T04:28:01;9.38;;;5.05;;
69527;SDS011;57136;51.986;4.468;2022-07-23T04:30:26;8.25;;;4.68;;
69527;SDS011;57136;51.986;4.468;2022-07-23T04:32:51;6.13;;;4.45;;
69527;SDS011;57136;51.986;4.468;2022-07-23T04:35:17;8.57;;;5.00;;
69527;SDS011;57136;51.986;4.468;2022-07-23T04:37:42;7.72;;;4.93;;
69527;SDS011;57136;51.986;4.468;2022-07-23T04:40:07;7.00;;;4.60;;
69527;SDS011;57136;51.986;4.468;2022-07-23T04:42:33;8.48;;;5.30;;
69527;SDS011;57136;51.986;4.468;2022-07-23T04:44:59;8.05;;;4.68;;
69527;SDS011;57136;51.986;4.468;2022-07-23T04:47:24;7.07;;;4.72;;
69527;SDS011;57136;51.986;4.468;2022-07-23T04:49:49;10.88;;;5.20;;
69527;SDS011;57136;51.986;4.468;2022-07-23T04:52:15;7.40;;;4.75;;
69527;SDS011;57136;51.986;4.468;2022-07-23T04:54:40;8.82;;;4.72;;
69527;SDS011;57136;51.986;4.468;2022-07-23T04:57:05;9.02;;;4.90;;
69527;SDS011;57136;51.986;4.468;2022-07-23T04:59:31;6.38;;;4.68;;
69527;SDS011;57136;51.986;4.468;2022-07-23T05:01:56;7.88;;;5.15;;
69527;SDS011;57136;51.986;4.468;2022-07-23T05:04:22;8.43;;;5.28;;
69527;SDS011;57136;51.986;4.468;2022-07-23T05:06:47;6.25;;;4.65;;
69527;SDS011;57136;51.986;4.468;2022-07-23T05:09:12;8.95;;;4.93;;
69527;SDS011;57136;51.986;4.468;2022-07-23T05:11:38;8.25;;;4.93;;
69527;SDS011;57136;51.986;4.468;2022-07-23T05:14:03;8.27;;;5.68;;
69527;SDS011;57136;51.986;4.468;2022-07-23T05:16:28;7.35;;;5.57;;
69527;SDS011;57136;51.986;4.468;2022-07-23T05:18:53;10.73;;;5.70;;
69527;SDS011;57136;51.986;4.468;2022-07-23T05:21:19;8.30;;;5.40;;
69527;SDS011;57136;51.986;4.468;2022-07-23T05:23:44;7.05;;;4.72;;
69527;SDS011;57136;51.986;4.468;2022-07-23T05:26:10;7.45;;;5.20;;
69527;SDS011;57136;51.986;4.468;2022-07-23T05:28:36;7.50;;;5.43;;
69527;SDS011;57136;51.986;4.468;2022-07-23T05:31:01;9.13;;;5.60;;
69527;SDS011;57136;51.986;4.468;2022-07-23T05:33:28;10.52;;;5.47;;
69527;SDS011;57136;51.986;4.468;2022-07-23T05:35:54;7.07;;;5.25;;
69527;SDS011;57136;51.986;4.468;2022-07-23T05:38:25;7.28;;;5.53;;
69527;SDS011;57136;51.986;4.468;2022-07-23T05:40:50;7.60;;;5.22;;
69527;SDS011;57136;51.986;4.468;2022-07-23T05:43:16;8.02;;;5.40;;
69527;SDS011;57136;51.986;4.468;2022-07-23T05:45:41;7.18;;;4.75;;
69527;SDS011;57136;51.986;4.468;2022-07-23T05:48:06;8.90;;;4.90;;
69527;SDS011;57136;51.986;4.468;2022-07-23T05:50:32;9.70;;;5.35;;
69527;SDS011;57136;51.986;4.468;2022-07-23T05:52:57;7.03;;;5.10;;
69527;SDS011;57136;51.986;4.468;2022-07-23T05:55:22;7.40;;;5.53;;
69527;SDS011;57136;51.986;4.468;2022-07-23T05:57:48;4.88;;;4.30;;
69527;SDS011;57136;51.986;4.468;2022-07-23T06:00:13;6.63;;;4.90;;
69527;SDS011;57136;51.986;4.468;2022-07-23T06:02:39;6.50;;;4.90;;
69527;SDS011;57136;51.986;4.468;2022-07-23T06:05:04;8.43;;;4.68;;
69527;SDS011;57136;51.986;4.468;2022-07-23T06:07:32;6.50;;;4.32;;
69527;SDS011;57136;51.986;4.468;2022-07-23T06:09:58;6.05;;;4.82;;
69527;SDS011;57136;51.986;4.468;2022-07-23T06:12:23;6.65;;;3.20;;
69527;SDS011;57136;51.986;4.468;2022-07-23T06:14:49;5.80;;;3.83;;
69527;SDS011;57136;51.986;4.468;2022-07-23T06:17:16;5.65;;;4.25;;
69527;SDS011;57136;51.986;4.468;2022-07-23T06:19:43;8.88;;;4.32;;
69527;SDS011;57136;51.986;4.468;2022-07-23T06:22:08;5.57;;;3.58;;
69527;SDS011;57136;51.986;4.468;2022-07-23T06:24:33;3.10;;;2.80;;
69527;SDS011;57136;51.986;4.468;2022-07-23T06:26:59;5.00;;;2.92;;
69527;SDS011;57136;51.986;4.468;2022-07-23T06:29:24;5.47;;;3.38;;
69527;SDS011;57136;51.986;4.468;2022-07-23T06:31:49;4.10;;;2.92;;
69527;SDS011;57136;51.986;4.468;2022-07-23T06:34:15;5.93;;;3.03;;
69527;SDS011;57136;51.986;4.468;2022-07-23T06:36:40;4.53;;;3.65;;
69527;SDS011;57136;51.986;4.468;2022-07-23T06:39:07;6.25;;;3.95;;
69527;SDS011;57136;51.986;4.468;2022-07-23T06:41:32;8.23;;;3.50;;
69527;SDS011;57136;51.986;4.468;2022-07-23T06:43:58;5.32;;;3.72;;
69527;SDS011;57136;51.986;4.468;2022-07-23T06:46:23;5.18;;;3.20;;
69527;SDS011;57136;51.986;4.468;2022-07-23T06:48:48;7.68;;;3.28;;
69527;SDS011;57136;51.986;4.468;2022-07-23T06:51:14;5.00;;;2.88;;
69527;SDS011;57136;51.986;4.468;2022-07-23T06:53:39;4.32;;;3.00;;
69527;SDS011;57136;51.986;4.468;2022-07-23T06:56:06;4.55;;;2.90;;
69527;SDS011;57136;51.986;4.468;2022-07-23T06:58:31;4.13;;;2.85;;
69527;SDS011;57136;51.986;4.468;2022-07-23T07:00:57;5.20;;;3.00;;
69527;SDS011;57136;51.986;4.468;2022-07-23T07:03:22;4.25;;;2.30;;
69527;SDS011;57136;51.986;4.468;2022-07-23T07:05:48;3.35;;;2.83;;
69527;SDS011;57136;51.986;4.468;2022-07-23T07:08:14;3.33;;;2.50;;
69527;SDS011;57136;51.986;4.468;2022-07-23T07:10:40;2.78;;;2.00;;
69527;SDS011;57136;51.986;4.468;2022-07-23T07:13:06;3.30;;;1.92;;
69527;SDS011;57136;51.986;4.468;2022-07-23T07:15:31;3.30;;;1.90;;
69527;SDS011;57136;51.986;4.468;2022-07-23T07:17:56;10.95;;;2.17;;
69527;SDS011;57136;51.986;4.468;2022-07-23T07:20:21;2.42;;;2.10;;
69527;SDS011;57136;51.986;4.468;2022-07-23T07:22:48;4.28;;;2.00;;
69527;SDS011;57136;51.986;4.468;2022-07-23T07:25:13;4.70;;;2.20;;
69527;SDS011;57136;51.986;4.468;2022-07-23T07:27:38;5.88;;;2.45;;
69527;SDS011;57136;51.986;4.468;2022-07-23T07:30:04;4.18;;;2.63;;
69527;SDS011;57136;51.986;4.468;2022-07-23T07:32:30;5.38;;;2.75;;
69527;SDS011;57136;51.986;4.468;2022-07-23T07:34:57;4.85;;;2.83;;
69527;SDS011;57136;51.986;4.468;2022-07-23T07:37:23;3.22;;;2.92;;
69527;SDS011;57136;51.986;4.468;2022-07-23T07:39:48;4.38;;;3.80;;
69527;SDS011;57136;51.986;4.468;2022-07-23T07:42:14;4.70;;;4.13;;
69527;SDS011;57136;51.986;4.468;2022-07-23T07:44:39;7.80;;;4.60;;
69527;SDS011;57136;51.986;4.468;2022-07-23T07:47:04;4.70;;;4.22;;
69527;SDS011;57136;51.986;4.468;2022-07-23T07:49:30;5.40;;;4.10;;
69527;SDS011;57136;51.986;4.468;2022-07-23T07:51:55;4.47;;;3.47;;
69527;SDS011;57136;51.986;4.468;2022-07-23T07:54:20;7.03;;;3.80;;
69527;SDS011;57136;51.986;4.468;2022-07-23T07:56:46;5.53;;;3.30;;
69527;SDS011;57136;51.986;4.468;2022-07-23T07:59:11;5.80;;;3.30;;
69527;SDS011;57136;51.986;4.468;2022-07-23T08:01:36;3.15;;;2.60;;
69527;SDS011;57136;51.986;4.468;2022-07-23T08:04:02;3.38;;;2.63;;
69527;SDS011;57136;51.986;4.468;2022-07-23T08:06:27;2.90;;;2.60;;
69527;SDS011;57136;51.986;4.468;2022-07-23T08:08:53;5.25;;;3.72;;
69527;SDS011;57136;51.986;4.468;2022-07-23T08:11:18;3.92;;;2.95;;
69527;SDS011;57136;51.986;4.468;2022-07-23T08:13:44;6.22;;;3.10;;
69527;SDS011;57136;51.986;4.468;2022-07-23T08:16:10;6.95;;;3.20;;
69527;SDS011;57136;51.986;4.468;2022-07-23T08:18:36;5.60;;;3.40;;
69527;SDS011;57136;51.986;4.468;2022-07-23T08:21:01;6.32;;;3.15;;
69527;SDS011;57136;51.986;4.468;2022-07-23T08:23:29;5.03;;;3.63;;
69527;SDS011;57136;51.986;4.468;2022-07-23T08:25:54;4.43;;;3.35;;
69527;SDS011;57136;51.986;4.468;2022-07-23T08:28:21;4.78;;;3.45;;
69527;SDS011;57136;51.986;4.468;2022-07-23T08:30:47;3.30;;;2.97;;
69527;SDS011;57136;51.986;4.468;2022-07-23T08:33:14;4.35;;;2.90;;
69527;SDS011;57136;51.986;4.468;2022-07-23T08:35:42;3.80;;;2.67;;
69527;SDS011;57136;51.986;4.468;2022-07-23T08:38:11;5.20;;;2.50;;
69527;SDS011;57136;51.986;4.468;2022-07-23T08:40:38;3.00;;;1.88;;
69527;SDS011;57136;51.986;4.468;2022-07-23T08:43:07;3.55;;;2.10;;
69527;SDS011;57136;51.986;4.468;2022-07-23T08:45:38;5.82;;;2.30;;
69527;SDS011;57136;51.986;4.468;2022-07-23T08:48:09;4.68;;;2.50;;
69527;SDS011;57136;51.986;4.468;2022-07-23T08:50:36;3.78;;;2.80;;
69527;SDS011;57136;51.986;4.468;2022-07-23T08:53:05;3.80;;;2.83;;
69527;SDS011;57136;51.986;4.468;2022-07-23T08:55:31;6.82;;;2.47;;
69527;SDS011;57136;51.986;4.468;2022-07-23T08:57:56;3.25;;;2.40;;
69527;SDS011;57136;51.986;4.468;2022-07-23T09:00:22;5.30;;;3.05;;
69527;SDS011;57136;51.986;4.468;2022-07-23T09:02:48;3.88;;;2.63;;
69527;SDS011;57136;51.986;4.468;2022-07-23T09:05:14;3.67;;;2.40;;
69527;SDS011;57136;51.986;4.468;2022-07-23T09:13:29;5.03;;;2.40;;
69527;SDS011;57136;51.986;4.468;2022-07-23T09:16:14;2.80;;;2.20;;
69527;SDS011;57136;51.986;4.468;2022-07-23T09:21:15;2.78;;;2.22;;
69527;SDS011;57136;51.986;4.468;2022-07-23T09:26:34;4.00;;;2.15;;
69527;SDS011;57136;51.986;4.468;2022-07-23T09:31:31;4.83;;;2.70;;
69527;SDS011;57136;51.986;4.468;2022-07-23T09:34:12;4.15;;;2.00;;
69527;SDS011;57136;51.986;4.468;2022-07-23T09:39:11;5.00;;;2.00;;
69527;SDS011;57136;51.986;4.468;2022-07-23T09:41:44;5.55;;;2.30;;
69527;SDS011;57136;51.986;4.468;2022-07-23T09:44:12;3.88;;;2.38;;
69527;SDS011;57136;51.986;4.468;2022-07-23T09:46:40;3.17;;;2.25;;
69527;SDS011;57136;51.986;4.468;2022-07-23T09:49:21;5.10;;;2.40;;
69527;SDS011;57136;51.986;4.468;2022-07-23T09:51:49;2.40;;;1.70;;
69527;SDS011;57136;51.986;4.468;2022-07-23T09:56:51;2.70;;;1.85;;
69527;SDS011;57136;51.986;4.468;2022-07-23T09:59:17;3.63;;;2.60;;
69527;SDS011;57136;51.986;4.468;2022-07-23T10:01:43;4.15;;;2.35;;
69527;SDS011;57136;51.986;4.468;2022-07-23T10:04:10;3.05;;;2.03;;
69527;SDS011;57136;51.986;4.468;2022-07-23T10:06:36;4.05;;;2.13;;
69527;SDS011;57136;51.986;4.468;2022-07-23T10:09:04;2.90;;;2.20;;
69527;SDS011;57136;51.986;4.468;2022-07-23T10:11:30;3.70;;;2.60;;
69527;SDS011;57136;51.986;4.468;2022-07-23T10:13:56;2.45;;;2.03;;
69527;SDS011;57136;51.986;4.468;2022-07-23T10:16:27;3.55;;;1.88;;
69527;SDS011;57136;51.986;4.468;2022-07-23T10:18:53;3.20;;;2.10;;
69527;SDS011;57136;51.986;4.468;2022-07-23T10:21:54;3.35;;;1.80;;
69527;SDS011;57136;51.986;4.468;2022-07-23T10:32:49;2.70;;;1.98;;
69527;SDS011;57136;51.986;4.468;2022-07-23T10:38:11;4.28;;;1.48;;
69527;SDS011;57136;51.986;4.468;2022-07-23T10:40:52;3.55;;;1.50;;
69527;SDS011;57136;51.986;4.468;2022-07-23T10:43:21;2.60;;;1.70;;
69527;SDS011;57136;51.986;4.468;2022-07-23T10:45:47;7.50;;;1.70;;
69527;SDS011;57136;51.986;4.468;2022-07-23T10:48:17;3.40;;;1.55;;
69527;SDS011;57136;51.986;4.468;2022-07-23T10:53:58;3.03;;;1.75;;
69527;SDS011;57136;51.986;4.468;2022-07-23T10:59:19;2.58;;;1.50;;
69527;SDS011;57136;51.986;4.468;2022-07-23T11:01:45;2.20;;;1.40;;
69527;SDS011;57136;51.986;4.468;2022-07-23T11:04:10;1.88;;;1.67;;
69527;SDS011;57136;51.986;4.468;2022-07-23T11:09:30;2.67;;;1.67;;
69527;SDS011;57136;51.986;4.468;2022-07-23T11:17:23;5.10;;;2.10;;
69527;SDS011;57136;51.986;4.468;2022-07-23T11:22:39;2.10;;;1.73;;
69527;SDS011;57136;51.986;4.468;2022-07-23T11:25:13;1.77;;;1.50;;
69527;SDS011;57136;51.986;4.468;2022-07-23T11:28:07;3.77;;;1.90;;
69527;SDS011;57136;51.986;4.468;2022-07-23T11:30:39;5.85;;;1.80;;
69527;SDS011;57136;51.986;4.468;2022-07-23T11:35:32;3.45;;;1.80;;
69527;SDS011;57136;51.986;4.468;2022-07-23T11:40:33;2.33;;;2.00;;
69527;SDS011;57136;51.986;4.468;2022-07-23T11:42:59;2.65;;;2.03;;
69527;SDS011;57136;51.986;4.468;2022-07-23T11:45:34;4.30;;;2.00;;
69527;SDS011;57136;51.986;4.468;2022-07-23T11:48:05;2.55;;;1.73;;
69527;SDS011;57136;51.986;4.468;2022-07-23T11:50:32;4.32;;;2.10;;
69527;SDS011;57136;51.986;4.468;2022-07-23T11:52:58;2.08;;;1.85;;
69527;SDS011;57136;51.986;4.468;2022-07-23T11:55:23;3.00;;;1.90;;
69527;SDS011;57136;51.986;4.468;2022-07-23T11:57:50;3.75;;;1.80;;
69527;SDS011;57136;51.986;4.468;2022-07-23T12:00:24;3.03;;;2.03;;
69527;SDS011;57136;51.986;4.468;2022-07-23T12:02:51;2.40;;;1.73;;
69527;SDS011;57136;51.986;4.468;2022-07-23T12:05:23;2.80;;;1.85;;
69527;SDS011;57136;51.986;4.468;2022-07-23T12:07:54;2.55;;;1.73;;
69527;SDS011;57136;51.986;4.468;2022-07-23T12:10:22;4.25;;;2.30;;
69527;SDS011;57136;51.986;4.468;2022-07-23T12:12:51;4.93;;;2.25;;
69527;SDS011;57136;51.986;4.468;2022-07-23T12:15:20;2.92;;;2.00;;
69527;SDS011;57136;51.986;4.468;2022-07-23T12:17:50;3.20;;;2.08;;
69527;SDS011;57136;51.986;4.468;2022-07-23T12:20:30;2.75;;;2.00;;
69527;SDS011;57136;51.986;4.468;2022-07-23T12:22:59;3.92;;;2.00;;
69527;SDS011;57136;51.986;4.468;2022-07-23T12:25:27;2.30;;;2.05;;
69527;SDS011;57136;51.986;4.468;2022-07-23T12:28:02;3.05;;;2.20;;
69527;SDS011;57136;51.986;4.468;2022-07-23T12:30:28;2.70;;;2.10;;
69527;SDS011;57136;51.986;4.468;2022-07-23T12:32:57;3.83;;;2.70;;
69527;SDS011;57136;51.986;4.468;2022-07-23T12:35:23;4.57;;;3.00;;
69527;SDS011;57136;51.986;4.468;2022-07-23T12:37:59;2.55;;;2.35;;
69527;SDS011;57136;51.986;4.468;2022-07-23T12:40:28;4.07;;;2.70;;
69527;SDS011;57136;51.986;4.468;2022-07-23T12:43:01;3.13;;;2.22;;
69527;SDS011;57136;51.986;4.468;2022-07-23T12:45:41;4.95;;;3.47;;
69527;SDS011;57136;51.986;4.468;2022-07-23T12:48:15;3.00;;;2.47;;
69527;SDS011;57136;51.986;4.468;2022-07-23T12:50:44;5.75;;;2.72;;
69527;SDS011;57136;51.986;4.468;2022-07-23T12:53:21;4.10;;;3.10;;
69527;SDS011;57136;51.986;4.468;2022-07-23T12:56:02;4.57;;;2.80;;
69527;SDS011;57136;51.986;4.468;2022-07-23T12:58:48;4.00;;;2.78;;
69527;SDS011;57136;51.986;4.468;2022-07-23T13:03:54;3.83;;;2.63;;
69527;SDS011;57136;51.986;4.468;2022-07-23T13:06:29;4.82;;;3.30;;
69527;SDS011;57136;51.986;4.468;2022-07-23T13:08:56;3.88;;;2.58;;
69527;SDS011;57136;51.986;4.468;2022-07-23T13:11:22;5.15;;;2.78;;
69527;SDS011;57136;51.986;4.468;2022-07-23T13:13:48;5.35;;;3.05;;
69527;SDS011;57136;51.986;4.468;2022-07-23T13:16:14;4.97;;;3.55;;
69527;SDS011;57136;51.986;4.468;2022-07-23T13:18:39;3.42;;;3.10;;
69527;SDS011;57136;51.986;4.468;2022-07-23T13:21:04;5.75;;;3.28;;
69527;SDS011;57136;51.986;4.468;2022-07-23T13:23:30;6.40;;;3.42;;
69527;SDS011;57136;51.986;4.468;2022-07-23T13:25:55;5.57;;;3.83;;
69527;SDS011;57136;51.986;4.468;2022-07-23T13:28:21;3.65;;;2.80;;
69527;SDS011;57136;51.986;4.468;2022-07-23T13:30:49;5.90;;;3.25;;
69527;SDS011;57136;51.986;4.468;2022-07-23T13:33:16;5.05;;;3.17;;
69527;SDS011;57136;51.986;4.468;2022-07-23T13:35:46;5.60;;;3.20;;
69527;SDS011;57136;51.986;4.468;2022-07-23T13:38:12;6.03;;;2.75;;
69527;SDS011;57136;51.986;4.468;2022-07-23T13:40:38;3.30;;;2.97;;
69527;SDS011;57136;51.986;4.468;2022-07-23T13:43:07;6.18;;;3.05;;
69527;SDS011;57136;51.986;4.468;2022-07-23T13:45:33;4.65;;;2.63;;
69527;SDS011;57136;51.986;4.468;2022-07-23T13:47:59;6.22;;;2.90;;
69527;SDS011;57136;51.986;4.468;2022-07-23T13:50:25;5.22;;;3.38;;
69527;SDS011;57136;51.986;4.468;2022-07-23T13:52:50;5.82;;;3.25;;
69527;SDS011;57136;51.986;4.468;2022-07-23T13:55:16;4.00;;;2.95;;
69527;SDS011;57136;51.986;4.468;2022-07-23T13:57:42;5.18;;;3.03;;
69527;SDS011;57136;51.986;4.468;2022-07-23T14:00:07;4.28;;;2.95;;
69527;SDS011;57136;51.986;4.468;2022-07-23T14:02:35;5.57;;;3.10;;
69527;SDS011;57136;51.986;4.468;2022-07-23T14:05:03;4.22;;;3.00;;
69527;SDS011;57136;51.986;4.468;2022-07-23T14:07:29;4.25;;;3.10;;
69527;SDS011;57136;51.986;4.468;2022-07-23T14:09:55;4.88;;;2.88;;
69527;SDS011;57136;51.986;4.468;2022-07-23T14:12:20;3.28;;;2.97;;
69527;SDS011;57136;51.986;4.468;2022-07-23T14:14:45;3.67;;;3.00;;
69527;SDS011;57136;51.986;4.468;2022-07-23T14:17:10;4.90;;;3.40;;
69527;SDS011;57136;51.986;4.468;2022-07-23T14:19:36;4.47;;;3.47;;
69527;SDS011;57136;51.986;4.468;2022-07-23T14:22:01;5.32;;;2.75;;
69527;SDS011;57136;51.986;4.468;2022-07-23T14:24:27;4.75;;;3.38;;
69527;SDS011;57136;51.986;4.468;2022-07-23T14:26:52;4.53;;;3.42;;
69527;SDS011;57136;51.986;4.468;2022-07-23T14:29:17;3.45;;;3.00;;
69527;SDS011;57136;51.986;4.468;2022-07-23T14:31:43;11.27;;;3.47;;
69527;SDS011;57136;51.986;4.468;2022-07-23T14:34:08;4.97;;;3.00;;
69527;SDS011;57136;51.986;4.468;2022-07-23T14:36:33;3.35;;;3.00;;
69527;SDS011;57136;51.986;4.468;2022-07-23T14:38:58;4.30;;;2.65;;
69527;SDS011;57136;51.986;4.468;2022-07-23T14:41:25;5.05;;;3.00;;
69527;SDS011;57136;51.986;4.468;2022-07-23T14:43:50;4.50;;;3.38;;
69527;SDS011;57136;51.986;4.468;2022-07-23T14:46:16;3.65;;;3.05;;
69527;SDS011;57136;51.986;4.468;2022-07-23T14:48:41;5.20;;;3.42;;
69527;SDS011;57136;51.986;4.468;2022-07-23T14:51:07;4.90;;;3.28;;
69527;SDS011;57136;51.986;4.468;2022-07-23T14:53:33;4.25;;;3.47;;
69527;SDS011;57136;51.986;4.468;2022-07-23T14:55:58;3.85;;;3.13;;
69527;SDS011;57136;51.986;4.468;2022-07-23T14:58:23;3.10;;;2.80;;
69527;SDS011;57136;51.986;4.468;2022-07-23T15:00:49;5.50;;;3.17;;
69527;SDS011;57136;51.986;4.468;2022-07-23T15:03:15;4.00;;;3.03;;
69527;SDS011;57136;51.986;4.468;2022-07-23T15:05:41;4.30;;;3.28;;
69527;SDS011;57136;51.986;4.468;2022-07-23T15:08:06;5.03;;;2.92;;
69527;SDS011;57136;51.986;4.468;2022-07-23T15:10:32;4.47;;;3.25;;
69527;SDS011;57136;51.986;4.468;2022-07-23T15:12:57;5.15;;;3.10;;
69527;SDS011;57136;51.986;4.468;2022-07-23T15:15:23;4.38;;;2.67;;
69527;SDS011;57136;51.986;4.468;2022-07-23T15:17:48;5.38;;;3.10;;
69527;SDS011;57136;51.986;4.468;2022-07-23T15:20:13;3.90;;;2.97;;
69527;SDS011;57136;51.986;4.468;2022-07-23T15:22:39;3.72;;;3.10;;
69527;SDS011;57136;51.986;4.468;2022-07-23T15:25:05;4.13;;;3.33;;
69527;SDS011;57136;51.986;4.468;2022-07-23T15:27:30;4.63;;;2.70;;
69527;SDS011;57136;51.986;4.468;2022-07-23T15:29:56;6.47;;;2.75;;
69527;SDS011;57136;51.986;4.468;2022-07-23T15:32:21;4.80;;;3.47;;
69527;SDS011;57136;51.986;4.468;2022-07-23T15:34:50;4.47;;;3.63;;
69527;SDS011;57136;51.986;4.468;2022-07-23T15:37:15;5.13;;;3.13;;
69527;SDS011;57136;51.986;4.468;2022-07-23T15:39:40;3.30;;;3.00;;
69527;SDS011;57136;51.986;4.468;2022-07-23T15:42:06;3.67;;;3.17;;